sensor_id;sensor_type;location;lat;lon;timestamp;pressure;altitude;pressure_sealevel;temperature;humidity
52651;BME280;38537;47.226;39.702;2023-08-24T00:01:01;100356.28;;;20.42;51.54
52651;BME280;38537;47.226;39.702;2023-08-24T00:03:29;100356.94;;;20.36;51.35
52651;BME280;38537;47.226;39.702;2023-08-24T00:05:56;100354.91;;;20.36;51.34
52651;BME280;38537;47.226;39.702;2023-08-24T00:08:23;100364.78;;;20.42;50.98
52651;BME280;38537;47.226;39.702;2023-08-24T00:10:51;100323.50;;;20.26;51.29
52651;BME280;38537;47.226;39.702;2023-08-24T00:13:18;100354.72;;;20.45;51.04
52651;BME280;38537;47.226;39.702;2023-08-24T00:15:46;100369.53;;;20.58;50.95
52651;BME280;38537;47.226;39.702;2023-08-24T00:18:13;100354.34;;;20.46;50.75
52651;BME280;38537;47.226;39.702;2023-08-24T00:20:40;100361.81;;;20.55;50.69
52651;BME280;38537;47.226;39.702;2023-08-24T00:23:08;100360.16;;;20.53;50.66
52651;BME280;38537;47.226;39.702;2023-08-24T00:25:35;100359.28;;;20.49;50.76
52651;BME280;38537;47.226;39.702;2023-08-24T00:28:03;100353.22;;;20.51;50.71
52651;BME280;38537;47.226;39.702;2023-08-24T00:30:30;100365.41;;;20.51;50.82
52651;BME280;38537;47.226;39.702;2023-08-24T00:32:57;100368.22;;;20.51;50.82
52651;BME280;38537;47.226;39.702;2023-08-24T00:35:26;100386.03;;;20.71;50.58
52651;BME280;38537;47.226;39.702;2023-08-24T00:37:53;100384.78;;;20.69;50.51
52651;BME280;38537;47.226;39.702;2023-08-24T00:40:21;100372.00;;;20.59;50.50
52651;BME280;38537;47.226;39.702;2023-08-24T00:42:48;100385.06;;;20.64;50.45
52651;BME280;38537;47.226;39.702;2023-08-24T00:45:15;100388.34;;;20.66;50.88
52651;BME280;38537;47.226;39.702;2023-08-24T00:47:46;100382.53;;;20.59;50.65
52651;BME280;38537;47.226;39.702;2023-08-24T00:50:17;100378.06;;;20.58;50.59
52651;BME280;38537;47.226;39.702;2023-08-24T00:52:46;100381.31;;;20.56;50.94
52651;BME280;38537;47.226;39.702;2023-08-24T00:55:18;100369.28;;;20.43;51.00
52651;BME280;38537;47.226;39.702;2023-08-24T00:57:47;100388.84;;;20.48;50.90
52651;BME280;38537;47.226;39.702;2023-08-24T01:00:16;100374.56;;;20.45;50.76
52651;BME280;38537;47.226;39.702;2023-08-24T01:02:43;100381.53;;;20.47;50.85
52651;BME280;38537;47.226;39.702;2023-08-24T01:05:11;100376.22;;;20.46;50.69
52651;BME280;38537;47.226;39.702;2023-08-24T01:07:40;100370.59;;;20.30;50.92
52651;BME280;38537;47.226;39.702;2023-08-24T01:10:10;100378.28;;;20.30;51.52
52651;BME280;38537;47.226;39.702;2023-08-24T01:12:54;100376.06;;;20.39;51.36
52651;BME280;38537;47.226;39.702;2023-08-24T01:15:29;100382.53;;;20.59;51.01
52651;BME280;38537;47.226;39.702;2023-08-24T01:18:04;100386.59;;;20.38;51.41
52651;BME280;38537;47.226;39.702;2023-08-24T01:20:34;100379.63;;;20.36;51.48
52651;BME280;38537;47.226;39.702;2023-08-24T01:25:46;100392.41;;;20.26;51.82
52651;BME280;38537;47.226;39.702;2023-08-24T01:28:15;100395.53;;;20.21;51.53
52651;BME280;38537;47.226;39.702;2023-08-24T01:30:44;100382.41;;;20.13;51.56
52651;BME280;38537;47.226;39.702;2023-08-24T01:33:11;100378.97;;;20.04;51.77
52651;BME280;38537;47.226;39.702;2023-08-24T01:35:41;100403.88;;;20.14;52.07
52651;BME280;38537;47.226;39.702;2023-08-24T01:38:09;100389.03;;;20.01;51.96
52651;BME280;38537;47.226;39.702;2023-08-24T01:41:04;100401.47;;;20.16;52.29
52651;BME280;38537;47.226;39.702;2023-08-24T01:43:36;100417.09;;;20.06;52.07
52651;BME280;38537;47.226;39.702;2023-08-24T01:46:12;100401.38;;;19.93;52.17
52651;BME280;38537;47.226;39.702;2023-08-24T01:48:43;100412.06;;;20.00;52.23
52651;BME280;38537;47.226;39.702;2023-08-24T01:51:12;100402.81;;;19.83;52.64
52651;BME280;38537;47.226;39.702;2023-08-24T01:53:40;100404.16;;;19.90;52.58
52651;BME280;38537;47.226;39.702;2023-08-24T01:56:10;100404.91;;;19.87;52.47
52651;BME280;38537;47.226;39.702;2023-08-24T01:58:37;100426.00;;;19.89;52.49
52651;BME280;38537;47.226;39.702;2023-08-24T02:01:05;100405.81;;;19.75;52.88
52651;BME280;38537;47.226;39.702;2023-08-24T02:03:35;100409.69;;;19.67;52.94
52651;BME280;38537;47.226;39.702;2023-08-24T02:06:03;100411.50;;;19.75;52.75
52651;BME280;38537;47.226;39.702;2023-08-24T02:08:32;100413.63;;;19.62;53.13
52651;BME280;38537;47.226;39.702;2023-08-24T02:10:59;100419.03;;;19.67;53.00
52651;BME280;38537;47.226;39.702;2023-08-24T02:13:27;100417.84;;;19.68;53.30
52651;BME280;38537;47.226;39.702;2023-08-24T02:16:05;100434.63;;;19.77;53.10
52651;BME280;38537;47.226;39.702;2023-08-24T02:18:36;100435.16;;;19.82;53.28
52651;BME280;38537;47.226;39.702;2023-08-24T02:21:08;100422.00;;;19.74;52.89
52651;BME280;38537;47.226;39.702;2023-08-24T02:23:38;100421.19;;;19.74;52.60
52651;BME280;38537;47.226;39.702;2023-08-24T02:26:06;100432.88;;;19.72;52.89
52651;BME280;38537;47.226;39.702;2023-08-24T02:28:36;100433.44;;;19.78;53.04
52651;BME280;38537;47.226;39.702;2023-08-24T02:31:04;100438.50;;;19.69;53.02
52651;BME280;38537;47.226;39.702;2023-08-24T02:33:32;100418.75;;;19.57;53.19
52651;BME280;38537;47.226;39.702;2023-08-24T02:35:59;100427.16;;;19.53;53.07
52651;BME280;38537;47.226;39.702;2023-08-24T02:38:28;100427.78;;;19.46;53.34
52651;BME280;38537;47.226;39.702;2023-08-24T02:41:02;100450.09;;;19.64;53.82
52651;BME280;38537;47.226;39.702;2023-08-24T02:43:31;100440.38;;;19.49;53.42
52651;BME280;38537;47.226;39.702;2023-08-24T02:48:31;100458.84;;;19.43;53.64
52651;BME280;38537;47.226;39.702;2023-08-24T02:51:03;100459.22;;;19.41;53.63
52651;BME280;38537;47.226;39.702;2023-08-24T02:53:31;100455.94;;;19.39;53.88
52651;BME280;38537;47.226;39.702;2023-08-24T02:56:00;100455.84;;;19.36;53.89
52651;BME280;38537;47.226;39.702;2023-08-24T02:58:28;100440.03;;;19.19;54.07
52651;BME280;38537;47.226;39.702;2023-08-24T03:00:56;100447.97;;;19.29;53.96
52651;BME280;38537;47.226;39.702;2023-08-24T03:03:24;100451.28;;;19.47;53.61
52651;BME280;38537;47.226;39.702;2023-08-24T03:05:57;100449.63;;;19.46;53.65
52651;BME280;38537;47.226;39.702;2023-08-24T03:08:29;100470.47;;;19.69;53.22
52651;BME280;38537;47.226;39.702;2023-08-24T03:10:58;100462.97;;;19.61;53.23
52651;BME280;38537;47.226;39.702;2023-08-24T03:13:30;100467.25;;;19.71;53.20
52651;BME280;38537;47.226;39.702;2023-08-24T03:16:03;100468.66;;;19.61;53.31
52651;BME280;38537;47.226;39.702;2023-08-24T03:18:32;100472.91;;;19.71;53.09
52651;BME280;38537;47.226;39.702;2023-08-24T03:21:02;100458.78;;;19.55;53.31
52651;BME280;38537;47.226;39.702;2023-08-24T03:23:33;100475.13;;;19.62;53.09
52651;BME280;38537;47.226;39.702;2023-08-24T03:26:00;100464.53;;;19.59;53.29
52651;BME280;38537;47.226;39.702;2023-08-24T03:28:28;100482.25;;;19.71;53.23
52651;BME280;38537;47.226;39.702;2023-08-24T03:30:55;100466.44;;;19.70;53.25
52651;BME280;38537;47.226;39.702;2023-08-24T03:33:22;100473.91;;;19.78;53.15
52651;BME280;38537;47.226;39.702;2023-08-24T03:35:50;100487.44;;;19.85;53.20
52651;BME280;38537;47.226;39.702;2023-08-24T03:38:19;100467.06;;;19.79;52.95
52651;BME280;38537;47.226;39.702;2023-08-24T03:40:46;100472.47;;;19.84;52.91
52651;BME280;38537;47.226;39.702;2023-08-24T03:43:14;100472.00;;;19.82;52.76
52651;BME280;38537;47.226;39.702;2023-08-24T03:45:44;100495.00;;;19.97;52.91
52651;BME280;38537;47.226;39.702;2023-08-24T03:48:12;100489.25;;;19.93;52.76
52651;BME280;38537;47.226;39.702;2023-08-24T03:50:41;100475.28;;;19.84;52.87
52651;BME280;38537;47.226;39.702;2023-08-24T03:53:08;100477.41;;;19.88;53.01
52651;BME280;38537;47.226;39.702;2023-08-24T03:55:36;100493.28;;;19.92;53.10
52651;BME280;38537;47.226;39.702;2023-08-24T03:58:04;100485.31;;;19.98;53.31
52651;BME280;38537;47.226;39.702;2023-08-24T04:00:32;100465.94;;;20.00;53.12
52651;BME280;38537;47.226;39.702;2023-08-24T04:03:01;100474.00;;;20.17;52.89
52651;BME280;38537;47.226;39.702;2023-08-24T04:05:30;100488.69;;;20.38;52.47
52651;BME280;38537;47.226;39.702;2023-08-24T04:07:58;100478.47;;;20.34;52.40
52651;BME280;38537;47.226;39.702;2023-08-24T04:10:29;100474.88;;;20.37;52.44
52651;BME280;38537;47.226;39.702;2023-08-24T04:12:58;100501.19;;;20.72;52.08
52651;BME280;38537;47.226;39.702;2023-08-24T04:15:27;100494.53;;;20.65;52.12
52651;BME280;38537;47.226;39.702;2023-08-24T04:17:55;100496.94;;;20.63;51.85
52651;BME280;38537;47.226;39.702;2023-08-24T04:20:24;100504.63;;;20.62;51.95
52651;BME280;38537;47.226;39.702;2023-08-24T04:22:51;100484.63;;;20.55;51.83
52651;BME280;38537;47.226;39.702;2023-08-24T04:25:23;100490.97;;;20.68;51.96
52651;BME280;38537;47.226;39.702;2023-08-24T04:27:51;100490.81;;;20.80;51.58
52651;BME280;38537;47.226;39.702;2023-08-24T04:30:20;100502.75;;;20.89;51.46
52651;BME280;38537;47.226;39.702;2023-08-24T04:32:48;100507.44;;;21.01;51.01
52651;BME280;38537;47.226;39.702;2023-08-24T04:35:16;100504.84;;;20.92;51.25
52651;BME280;38537;47.226;39.702;2023-08-24T04:37:46;100493.41;;;20.88;51.05
52651;BME280;38537;47.226;39.702;2023-08-24T04:40:14;100503.56;;;20.90;51.17
52651;BME280;38537;47.226;39.702;2023-08-24T04:42:42;100503.47;;;21.05;50.81
52651;BME280;38537;47.226;39.702;2023-08-24T04:45:09;100504.75;;;21.08;50.80
52651;BME280;38537;47.226;39.702;2023-08-24T04:47:37;100483.72;;;20.90;51.06
52651;BME280;38537;47.226;39.702;2023-08-24T04:50:05;100497.72;;;21.02;50.95
52651;BME280;38537;47.226;39.702;2023-08-24T04:52:34;100500.59;;;21.21;50.99
52651;BME280;38537;47.226;39.702;2023-08-24T04:55:02;100506.53;;;21.35;50.69
52651;BME280;38537;47.226;39.702;2023-08-24T04:57:31;100499.19;;;21.34;50.52
52651;BME280;38537;47.226;39.702;2023-08-24T04:59:59;100504.19;;;21.41;50.53
52651;BME280;38537;47.226;39.702;2023-08-24T05:02:28;100493.44;;;21.31;50.40
52651;BME280;38537;47.226;39.702;2023-08-24T05:04:55;100493.50;;;21.34;50.43
52651;BME280;38537;47.226;39.702;2023-08-24T05:07:22;100497.84;;;21.28;50.47
52651;BME280;38537;47.226;39.702;2023-08-24T05:09:50;100490.53;;;21.27;50.66
52651;BME280;38537;47.226;39.702;2023-08-24T05:12:17;100499.28;;;21.38;50.87
52651;BME280;38537;47.226;39.702;2023-08-24T05:14:44;100500.19;;;21.68;50.25
52651;BME280;38537;47.226;39.702;2023-08-24T05:17:12;100487.75;;;21.76;49.87
52651;BME280;38537;47.226;39.702;2023-08-24T05:19:39;100503.66;;;22.04;49.69
52651;BME280;38537;47.226;39.702;2023-08-24T05:22:07;100495.94;;;22.04;49.49
52651;BME280;38537;47.226;39.702;2023-08-24T05:24:34;100498.03;;;22.07;49.50
52651;BME280;38537;47.226;39.702;2023-08-24T05:27:02;100501.34;;;22.13;49.69
52651;BME280;38537;47.226;39.702;2023-08-24T05:29:30;100490.72;;;22.10;49.10
52651;BME280;38537;47.226;39.702;2023-08-24T05:31:58;100498.00;;;22.34;49.35
52651;BME280;38537;47.226;39.702;2023-08-24T05:34:26;100491.22;;;22.42;48.72
52651;BME280;38537;47.226;39.702;2023-08-24T05:36:55;100487.09;;;22.39;48.35
52651;BME280;38537;47.226;39.702;2023-08-24T05:39:22;100502.59;;;22.42;48.44
52651;BME280;38537;47.226;39.702;2023-08-24T05:41:53;100498.81;;;22.34;48.65
52651;BME280;38537;47.226;39.702;2023-08-24T05:44:21;100481.78;;;22.38;48.63
52651;BME280;38537;47.226;39.702;2023-08-24T05:46:48;100497.19;;;22.63;48.53
52651;BME280;38537;47.226;39.702;2023-08-24T05:49:15;100498.22;;;22.78;47.90
52651;BME280;38537;47.226;39.702;2023-08-24T05:51:43;100490.78;;;22.70;47.87
52651;BME280;38537;47.226;39.702;2023-08-24T05:54:10;100502.34;;;22.84;47.50
52651;BME280;38537;47.226;39.702;2023-08-24T05:56:38;100483.63;;;22.83;47.27
52651;BME280;38537;47.226;39.702;2023-08-24T05:59:05;100498.56;;;23.06;46.99
52651;BME280;38537;47.226;39.702;2023-08-24T06:01:32;100488.38;;;23.05;46.78
52651;BME280;38537;47.226;39.702;2023-08-24T06:03:59;100485.75;;;23.27;46.40
52651;BME280;38537;47.226;39.702;2023-08-24T06:06:27;100495.28;;;23.45;46.09
52651;BME280;38537;47.226;39.702;2023-08-24T06:08:54;100496.88;;;23.42;45.42
52651;BME280;38537;47.226;39.702;2023-08-24T06:11:24;100488.34;;;23.42;45.65
52651;BME280;38537;47.226;39.702;2023-08-24T06:13:51;100497.78;;;23.50;45.49
52651;BME280;38537;47.226;39.702;2023-08-24T06:16:21;100486.66;;;23.34;44.99
52651;BME280;38537;47.226;39.702;2023-08-24T06:18:49;100489.19;;;23.46;45.31
52651;BME280;38537;47.226;39.702;2023-08-24T06:21:16;100485.88;;;23.41;45.09
52651;BME280;38537;47.226;39.702;2023-08-24T06:23:44;100490.06;;;23.50;45.11
52651;BME280;38537;47.226;39.702;2023-08-24T06:26:11;100493.00;;;23.61;44.89
52651;BME280;38537;47.226;39.702;2023-08-24T06:28:39;100489.38;;;23.64;44.88
52651;BME280;38537;47.226;39.702;2023-08-24T06:31:07;100495.25;;;23.85;44.75
52651;BME280;38537;47.226;39.702;2023-08-24T06:33:36;100492.13;;;23.98;44.57
52651;BME280;38537;47.226;39.702;2023-08-24T06:36:04;100486.44;;;24.05;44.28
52651;BME280;38537;47.226;39.702;2023-08-24T06:38:35;100491.09;;;24.27;43.87
52651;BME280;38537;47.226;39.702;2023-08-24T06:41:02;100497.22;;;24.29;43.86
52651;BME280;38537;47.226;39.702;2023-08-24T06:43:29;100489.09;;;24.31;43.36
52651;BME280;38537;47.226;39.702;2023-08-24T06:45:57;100481.78;;;24.34;43.33
52651;BME280;38537;47.226;39.702;2023-08-24T06:48:24;100498.91;;;24.34;43.40
52651;BME280;38537;47.226;39.702;2023-08-24T06:50:52;100496.91;;;24.41;43.27
52651;BME280;38537;47.226;39.702;2023-08-24T06:53:19;100491.59;;;24.40;43.10
52651;BME280;38537;47.226;39.702;2023-08-24T06:55:46;100501.50;;;24.60;43.05
52651;BME280;38537;47.226;39.702;2023-08-24T06:58:14;100496.66;;;24.68;42.83
52651;BME280;38537;47.226;39.702;2023-08-24T07:00:41;100492.09;;;24.56;42.28
52651;BME280;38537;47.226;39.702;2023-08-24T07:03:08;100501.34;;;24.35;42.42
52651;BME280;38537;47.226;39.702;2023-08-24T07:05:36;100466.63;;;24.26;42.59
52651;BME280;38537;47.226;39.702;2023-08-24T07:08:03;100488.78;;;24.50;42.35
52651;BME280;38537;47.226;39.702;2023-08-24T07:10:31;100492.53;;;24.62;42.47
52651;BME280;38537;47.226;39.702;2023-08-24T07:13:00;100486.34;;;24.52;42.11
52651;BME280;38537;47.226;39.702;2023-08-24T07:15:27;100505.50;;;24.48;42.41
52651;BME280;38537;47.226;39.702;2023-08-24T07:17:55;100493.25;;;24.48;42.00
52651;BME280;38537;47.226;39.702;2023-08-24T07:20:23;100494.53;;;24.57;42.08
52651;BME280;38537;47.226;39.702;2023-08-24T07:22:50;100491.28;;;24.55;41.35
52651;BME280;38537;47.226;39.702;2023-08-24T07:25:18;100481.91;;;24.58;41.11
52651;BME280;38537;47.226;39.702;2023-08-24T07:27:47;100489.28;;;24.70;40.91
52651;BME280;38537;47.226;39.702;2023-08-24T07:30:15;100484.34;;;24.56;40.87
52651;BME280;38537;47.226;39.702;2023-08-24T07:32:58;100478.59;;;24.49;40.80
52651;BME280;38537;47.226;39.702;2023-08-24T07:35:25;100487.66;;;24.66;40.55
52651;BME280;38537;47.226;39.702;2023-08-24T07:37:53;100475.44;;;24.76;40.23
52651;BME280;38537;47.226;39.702;2023-08-24T07:40:22;100478.28;;;24.72;40.27
52651;BME280;38537;47.226;39.702;2023-08-24T07:42:51;100486.03;;;24.65;40.08
52651;BME280;38537;47.226;39.702;2023-08-24T07:45:22;100481.97;;;24.76;40.44
52651;BME280;38537;47.226;39.702;2023-08-24T07:47:53;100473.03;;;24.81;40.06
52651;BME280;38537;47.226;39.702;2023-08-24T07:50:21;100467.75;;;24.87;40.06
52651;BME280;38537;47.226;39.702;2023-08-24T07:52:50;100474.75;;;25.00;39.79
52651;BME280;38537;47.226;39.702;2023-08-24T07:55:20;100491.91;;;25.04;39.45
52651;BME280;38537;47.226;39.702;2023-08-24T07:57:47;100486.44;;;24.70;38.76
52651;BME280;38537;47.226;39.702;2023-08-24T08:00:16;100492.16;;;24.67;39.53
52651;BME280;38537;47.226;39.702;2023-08-24T08:02:43;100465.63;;;24.70;39.57
52651;BME280;38537;47.226;39.702;2023-08-24T08:05:11;100475.50;;;24.86;39.75
52651;BME280;38537;47.226;39.702;2023-08-24T08:07:40;100478.00;;;24.95;39.16
52651;BME280;38537;47.226;39.702;2023-08-24T08:10:08;100469.78;;;24.93;39.24
52651;BME280;38537;47.226;39.702;2023-08-24T08:12:36;100478.06;;;25.09;39.59
52651;BME280;38537;47.226;39.702;2023-08-24T08:15:03;100477.53;;;24.93;39.18
52651;BME280;38537;47.226;39.702;2023-08-24T08:17:33;100476.38;;;24.98;38.28
52651;BME280;38537;47.226;39.702;2023-08-24T08:20:01;100469.78;;;24.93;38.30
52651;BME280;38537;47.226;39.702;2023-08-24T08:22:33;100461.72;;;25.06;38.19
52651;BME280;38537;47.226;39.702;2023-08-24T08:25:07;100447.00;;;25.04;38.10
52651;BME280;38537;47.226;39.702;2023-08-24T08:27:34;100461.72;;;25.20;38.35
52651;BME280;38537;47.226;39.702;2023-08-24T08:30:02;100453.97;;;25.24;38.33
52651;BME280;38537;47.226;39.702;2023-08-24T08:32:33;100447.44;;;25.24;37.86
52651;BME280;38537;47.226;39.702;2023-08-24T08:35:00;100470.31;;;25.35;38.07
52651;BME280;38537;47.226;39.702;2023-08-24T08:37:31;100453.59;;;25.26;37.73
52651;BME280;38537;47.226;39.702;2023-08-24T08:40:01;100456.88;;;25.32;37.90
52651;BME280;38537;47.226;39.702;2023-08-24T08:42:30;100451.56;;;25.48;37.72
52651;BME280;38537;47.226;39.702;2023-08-24T08:44:59;100459.28;;;25.37;37.11
52651;BME280;38537;47.226;39.702;2023-08-24T08:47:31;100471.94;;;25.21;37.75
52651;BME280;38537;47.226;39.702;2023-08-24T08:49:59;100461.72;;;25.17;37.52
52651;BME280;38537;47.226;39.702;2023-08-24T08:52:31;100452.34;;;25.27;37.96
52651;BME280;38537;47.226;39.702;2023-08-24T08:55:00;100452.78;;;25.40;37.98
52651;BME280;38537;47.226;39.702;2023-08-24T08:57:30;100458.50;;;25.33;36.48
52651;BME280;38537;47.226;39.702;2023-08-24T09:00:00;100450.31;;;25.31;36.76
52651;BME280;38537;47.226;39.702;2023-08-24T09:02:33;100462.19;;;25.51;36.77
52651;BME280;38537;47.226;39.702;2023-08-24T09:05:01;100441.34;;;25.47;36.72
52651;BME280;38537;47.226;39.702;2023-08-24T09:07:33;100456.09;;;25.63;36.53
52651;BME280;38537;47.226;39.702;2023-08-24T09:10:02;100454.03;;;25.64;36.37
52651;BME280;38537;47.226;39.702;2023-08-24T09:12:31;100449.97;;;25.75;36.54
52651;BME280;38537;47.226;39.702;2023-08-24T09:15:06;100429.94;;;25.75;36.31
52651;BME280;38537;47.226;39.702;2023-08-24T09:17:33;100432.38;;;25.80;36.24
52651;BME280;38537;47.226;39.702;2023-08-24T09:20:06;100449.13;;;25.92;36.34
52651;BME280;38537;47.226;39.702;2023-08-24T09:22:38;100429.09;;;25.92;36.30
52651;BME280;38537;47.226;39.702;2023-08-24T09:25:11;100427.88;;;25.90;36.41
52651;BME280;38537;47.226;39.702;2023-08-24T09:27:38;100430.72;;;25.86;35.74
52651;BME280;38537;47.226;39.702;2023-08-24T09:30:06;100414.78;;;25.82;35.92
52651;BME280;38537;47.226;39.702;2023-08-24T09:32:34;100420.91;;;25.94;36.14
52651;BME280;38537;47.226;39.702;2023-08-24T09:35:03;100433.16;;;26.06;35.74
52651;BME280;38537;47.226;39.702;2023-08-24T09:37:37;100426.59;;;26.09;35.67
52651;BME280;38537;47.226;39.702;2023-08-24T09:40:07;100424.59;;;25.91;34.65
52651;BME280;38537;47.226;39.702;2023-08-24T09:42:42;100431.13;;;25.95;34.48
52651;BME280;38537;47.226;39.702;2023-08-24T09:45:14;100415.19;;;25.94;34.41
52651;BME280;38537;47.226;39.702;2023-08-24T09:47:51;100426.59;;;26.09;34.23
52651;BME280;38537;47.226;39.702;2023-08-24T09:50:19;100422.09;;;26.18;34.91
52651;BME280;38537;47.226;39.702;2023-08-24T09:52:47;100442.94;;;26.19;33.92
52651;BME280;38537;47.226;39.702;2023-08-24T09:55:20;100435.59;;;26.14;33.99
52651;BME280;38537;47.226;39.702;2023-08-24T09:57:52;100430.31;;;25.91;33.42
52651;BME280;38537;47.226;39.702;2023-08-24T10:00:25;100436.41;;;26.01;33.20
52651;BME280;38537;47.226;39.702;2023-08-24T10:02:53;100422.53;;;26.03;32.64
52651;BME280;38537;47.226;39.702;2023-08-24T10:05:26;100412.69;;;26.07;32.89
52651;BME280;38537;47.226;39.702;2023-08-24T10:08:15;100414.31;;;26.19;33.26
52651;BME280;38537;47.226;39.702;2023-08-24T10:10:44;100420.88;;;26.12;32.45
52651;BME280;38537;47.226;39.702;2023-08-24T10:15:53;100416.72;;;26.24;32.77
52651;BME280;38537;47.226;39.702;2023-08-24T10:18:22;100388.91;;;26.24;32.96
52651;BME280;38537;47.226;39.702;2023-08-24T10:20:51;100394.66;;;26.35;32.11
52651;BME280;38537;47.226;39.702;2023-08-24T10:23:20;100406.03;;;26.49;32.74
52651;BME280;38537;47.226;39.702;2023-08-24T10:25:50;100400.72;;;26.51;32.33
52651;BME280;38537;47.226;39.702;2023-08-24T10:28:20;100401.09;;;26.60;32.37
52651;BME280;38537;47.226;39.702;2023-08-24T10:30:49;100385.97;;;26.56;32.59
52651;BME280;38537;47.226;39.702;2023-08-24T10:33:17;100396.22;;;26.50;32.43
52651;BME280;38537;47.226;39.702;2023-08-24T10:35:47;100393.38;;;26.43;32.71
52651;BME280;38537;47.226;39.702;2023-08-24T10:38:30;100391.72;;;26.53;32.43
52651;BME280;38537;47.226;39.702;2023-08-24T10:41:02;100395.72;;;26.66;32.44
52651;BME280;38537;47.226;39.702;2023-08-24T10:43:38;100394.66;;;26.39;31.59
52651;BME280;38537;47.226;39.702;2023-08-24T10:46:13;100397.94;;;26.30;31.34
52651;BME280;38537;47.226;39.702;2023-08-24T10:51:17;100405.28;;;26.27;32.38
52651;BME280;38537;47.226;39.702;2023-08-24T10:53:52;100396.31;;;26.18;32.72
52651;BME280;38537;47.226;39.702;2023-08-24T10:56:21;100385.66;;;26.26;33.10
52651;BME280;38537;47.226;39.702;2023-08-24T10:59:12;100384.81;;;26.40;32.77
52651;BME280;38537;47.226;39.702;2023-08-24T11:01:55;100388.09;;;26.38;33.18
52651;BME280;38537;47.226;39.702;2023-08-24T11:04:22;100369.31;;;26.30;33.39
52651;BME280;38537;47.226;39.702;2023-08-24T11:06:55;100396.69;;;26.35;33.63
52651;BME280;38537;47.226;39.702;2023-08-24T11:09:23;100378.75;;;26.09;34.11
52651;BME280;38537;47.226;39.702;2023-08-24T11:11:59;100380.81;;;26.05;34.10
52651;BME280;38537;47.226;39.702;2023-08-24T11:14:28;100383.31;;;25.85;34.73
52651;BME280;38537;47.226;39.702;2023-08-24T11:17:00;100381.69;;;25.77;35.10
52651;BME280;38537;47.226;39.702;2023-08-24T11:19:27;100373.94;;;25.74;34.48
52651;BME280;38537;47.226;39.702;2023-08-24T11:21:58;100372.72;;;25.75;34.48
52651;BME280;38537;47.226;39.702;2023-08-24T11:24:26;100359.66;;;25.71;34.20
52651;BME280;38537;47.226;39.702;2023-08-24T11:26:54;100338.75;;;25.84;34.59
52651;BME280;38537;47.226;39.702;2023-08-24T11:29:21;100338.34;;;25.97;33.78
52651;BME280;38537;47.226;39.702;2023-08-24T11:31:51;100346.06;;;26.03;33.65
52651;BME280;38537;47.226;39.702;2023-08-24T11:34:18;100361.91;;;26.29;34.09
52651;BME280;38537;47.226;39.702;2023-08-24T11:36:47;100342.31;;;26.31;34.45
52651;BME280;38537;47.226;39.702;2023-08-24T11:39:16;100355.69;;;26.52;34.81
52651;BME280;38537;47.226;39.702;2023-08-24T11:42:04;100350.38;;;26.54;35.14
52651;BME280;38537;47.226;39.702;2023-08-24T11:44:45;100350.81;;;26.45;33.99
52651;BME280;38537;47.226;39.702;2023-08-24T11:47:15;100343.91;;;26.28;34.28
52651;BME280;38537;47.226;39.702;2023-08-24T11:49:43;100345.16;;;26.20;34.97
52651;BME280;38537;47.226;39.702;2023-08-24T11:52:10;100333.38;;;26.08;34.98
52651;BME280;38537;47.226;39.702;2023-08-24T11:54:38;100321.91;;;26.11;35.20
52651;BME280;38537;47.226;39.702;2023-08-24T11:57:07;100328.72;;;26.42;34.58
52651;BME280;38537;47.226;39.702;2023-08-24T11:59:38;100352.41;;;26.60;34.57
52651;BME280;38537;47.226;39.702;2023-08-24T12:02:06;100330.69;;;26.63;34.43
52651;BME280;38537;47.226;39.702;2023-08-24T12:04:40;100331.81;;;26.80;34.41
52651;BME280;38537;47.226;39.702;2023-08-24T12:07:12;100331.81;;;26.80;34.30
52651;BME280;38537;47.226;39.702;2023-08-24T12:09:45;100337.13;;;26.78;34.37
52651;BME280;38537;47.226;39.702;2023-08-24T12:12:17;100334.72;;;26.73;34.36
52651;BME280;38537;47.226;39.702;2023-08-24T12:14:47;100349.84;;;26.73;34.67
52651;BME280;38537;47.226;39.702;2023-08-24T12:17:16;100353.16;;;26.64;35.19
52651;BME280;38537;47.226;39.702;2023-08-24T12:19:57;100347.88;;;26.63;35.32
52651;BME280;38537;47.226;39.702;2023-08-24T12:22:25;100340.88;;;26.68;35.25
52651;BME280;38537;47.226;39.702;2023-08-24T12:24:52;100324.16;;;26.62;35.25
52651;BME280;38537;47.226;39.702;2023-08-24T12:27:23;100337.19;;;26.71;35.04
52651;BME280;38537;47.226;39.702;2023-08-24T12:29:51;100323.19;;;26.83;34.85
52651;BME280;38537;47.226;39.702;2023-08-24T12:32:20;100328.06;;;26.86;34.53
52651;BME280;38537;47.226;39.702;2023-08-24T12:34:50;100325.25;;;26.83;33.99
52651;BME280;38537;47.226;39.702;2023-08-24T12:37:22;100316.56;;;26.90;34.19
52651;BME280;38537;47.226;39.702;2023-08-24T12:39:49;100324.75;;;26.99;34.48
52651;BME280;38537;47.226;39.702;2023-08-24T12:42:16;100308.31;;;27.03;34.57
52651;BME280;38537;47.226;39.702;2023-08-24T12:44:43;100313.97;;;27.13;34.49
52651;BME280;38537;47.226;39.702;2023-08-24T12:47:11;100291.56;;;26.94;35.43
52651;BME280;38537;47.226;39.702;2023-08-24T12:49:38;100329.50;;;27.16;35.12
52651;BME280;38537;47.226;39.702;2023-08-24T12:52:06;100329.38;;;27.30;35.18
52651;BME280;38537;47.226;39.702;2023-08-24T12:54:33;100336.22;;;27.43;34.86
52651;BME280;38537;47.226;39.702;2023-08-24T12:57:00;100329.13;;;27.58;34.66
52651;BME280;38537;47.226;39.702;2023-08-24T12:59:27;100329.91;;;27.66;34.63
52651;BME280;38537;47.226;39.702;2023-08-24T13:01:55;100318.31;;;27.73;34.94